Terminal Aerodrome Forecast
Issued by NWS San Angelo, TX

Current Version | Previous Version | Text Only | Print | Product List | Glossary On
Versions: 1 2 3 4 5 6 7 8 9 10 11 12 13 14 15 16 17 18 19 20 21 22
000
FTUS44 KSJT 161700
TAFSJT
TAF
KSJT 161739Z 1618/1718 13006KT P6SM SCT030 BKN080
     FM162000 VRB06KT P6SM VCSH SCT030 BKN050
      TEMPO 1621/1623 4SM SHRA BKN040
     FM170100 VRB04KT P6SM SCT050 BKN100=

USA.gov is the U.S. government's official web portal to all federal, state and local government web resources and services.